createdAt,value
2022-09-04T00:02:20.969Z,16.90
2022-09-04T00:04:57.406Z,18.30
2022-09-04T00:07:31.136Z,16.90
2022-09-04T00:10:09.850Z,16.90
2022-09-04T00:12:45.696Z,16.90
2022-09-04T00:15:19.552Z,16.90
2022-09-04T00:17:56.042Z,16.90
2022-09-04T00:20:34.195Z,16.80
2022-09-04T00:23:11.157Z,16.80
2022-09-04T00:25:47.754Z,16.80
2022-09-04T00:28:28.547Z,16.80
2022-09-04T00:31:01.402Z,16.80
2022-09-04T00:33:36.797Z,16.60
2022-09-04T00:36:06.457Z,16.90
2022-09-04T00:38:42.624Z,16.90
2022-09-04T00:41:22.743Z,16.90
2022-09-04T00:44:27.271Z,16.90
2022-09-04T00:47:26.282Z,15.20
2022-09-04T00:50:27.709Z,16.90
2022-09-04T00:53:23.096Z,21.50
2022-09-04T00:56:05.812Z,16.90
2022-09-04T00:58:56.721Z,15.90
2022-09-04T01:01:36.972Z,16.80
2022-09-04T01:04:38.481Z,16.80
2022-09-04T01:07:24.106Z,16.70
2022-09-04T01:10:23.423Z,21.70
2022-09-04T01:13:01.105Z,16.70
2022-09-04T01:15:37.318Z,16.70
2022-09-04T01:18:10.254Z,16.70
2022-09-04T01:21:30.974Z,16.40
2022-09-04T01:24:20.227Z,15.70
2022-09-04T01:26:57.309Z,16.00
2022-09-04T01:29:36.827Z,14.70
2022-09-04T01:32:15.551Z,20.40
2022-09-04T01:34:51.787Z,21.00
2022-09-04T01:37:31.824Z,14.50
2022-09-04T01:40:17.205Z,16.50
2022-09-04T01:42:51.306Z,16.50
2022-09-04T01:45:30.233Z,16.50
2022-09-04T01:48:04.429Z,14.30
2022-09-04T01:50:33.697Z,16.50
2022-09-04T01:53:11.695Z,14.40
2022-09-04T01:55:47.988Z,16.50
2022-09-04T01:58:30.754Z,16.60
2022-09-04T02:01:09.020Z,16.50
2022-09-04T02:03:46.509Z,16.50
2022-09-04T02:06:23.250Z,16.50
2022-09-04T02:09:11.653Z,16.50
2022-09-04T02:11:45.315Z,16.50
2022-09-04T02:14:34.190Z,14.40
2022-09-04T02:17:10.754Z,16.40
2022-09-04T02:19:51.520Z,16.40
2022-09-04T02:22:27.685Z,14.10
2022-09-04T02:25:05.819Z,16.30
2022-09-04T02:27:43.411Z,14.00
2022-09-04T02:30:16.395Z,19.60
2022-09-04T02:32:54.094Z,15.20
2022-09-04T02:35:28.581Z,13.90
2022-09-04T02:38:05.771Z,14.60
2022-09-04T02:40:42.419Z,15.20
2022-09-04T02:43:28.165Z,15.10
2022-09-04T02:46:05.692Z,16.20
2022-09-04T02:48:44.748Z,16.20
2022-09-04T02:51:25.375Z,16.20
2022-09-04T02:54:02.858Z,14.00
2022-09-04T02:56:41.919Z,15.50
2022-09-04T02:59:28.711Z,13.90
2022-09-04T03:02:01.115Z,16.10
2022-09-04T03:04:36.656Z,20.20
2022-09-04T03:07:10.762Z,14.20
2022-09-04T03:09:46.413Z,16.10
2022-09-04T03:12:29.866Z,14.50
2022-09-04T03:15:06.051Z,16.10
2022-09-04T03:17:43.095Z,16.20
2022-09-04T03:20:17.929Z,16.20
2022-09-04T03:22:51.862Z,16.20
2022-09-04T03:26:01.809Z,13.90
2022-09-04T03:28:39.307Z,16.20
2022-09-04T03:31:21.927Z,16.20
2022-09-04T03:33:57.264Z,16.20
2022-09-04T03:36:31.860Z,20.40
2022-09-04T03:39:06.642Z,16.20
2022-09-04T03:41:42.392Z,16.20
2022-09-04T03:44:27.700Z,16.20
2022-09-04T03:47:06.755Z,14.50
2022-09-04T03:49:47.087Z,16.10
2022-09-04T03:52:21.288Z,16.10
2022-09-04T03:55:15.753Z,21.00
2022-09-04T03:57:59.673Z,14.00
2022-09-04T04:00:36.820Z,16.10
2022-09-04T04:03:18.543Z,16.10
2022-09-04T04:05:56.721Z,16.00
2022-09-04T04:08:47.452Z,16.10
2022-09-04T04:11:29.544Z,16.10
2022-09-04T04:14:16.607Z,16.00
2022-09-04T04:16:55.818Z,16.00
2022-09-04T04:19:45.067Z,13.80
2022-09-04T04:22:30.163Z,14.20
2022-09-04T04:25:17.009Z,14.50
2022-09-04T04:28:09.225Z,15.90
2022-09-04T04:30:49.394Z,15.90
2022-09-04T04:33:35.932Z,15.80
2022-09-04T04:36:15.406Z,15.10
2022-09-04T04:38:58.717Z,15.80
2022-09-04T04:41:58.686Z,15.80
2022-09-04T04:44:50.922Z,20.50
2022-09-04T04:47:42.839Z,15.80
2022-09-04T04:50:21.644Z,15.80
2022-09-04T04:53:01.024Z,15.80
2022-09-04T04:55:39.899Z,15.80
2022-09-04T04:58:34.347Z,15.80
2022-09-04T05:01:09.549Z,15.80
2022-09-04T05:03:50.927Z,15.50
2022-09-04T05:06:25.988Z,14.90
2022-09-04T05:09:02.932Z,15.90
2022-09-04T05:11:41.077Z,15.90
2022-09-04T05:14:24.541Z,15.90
2022-09-04T05:17:00.776Z,15.90
2022-09-04T05:19:37.162Z,15.80
2022-09-04T05:22:15.655Z,15.30
2022-09-04T05:24:55.678Z,13.80
2022-09-04T05:27:44.278Z,14.50
2022-09-04T05:30:17.985Z,14.80
2022-09-04T05:32:57.291Z,15.70
2022-09-04T05:35:35.684Z,15.00
2022-09-04T05:38:11.825Z,15.20
2022-09-04T05:40:56.910Z,15.50
2022-09-04T05:43:39.511Z,13.70
2022-09-04T05:46:13.464Z,15.70
2022-09-04T05:48:52.116Z,14.90
2022-09-04T05:51:53.353Z,14.00
2022-09-04T05:54:56.566Z,15.60
2022-09-04T05:57:42.401Z,14.50
2022-09-04T06:00:14.844Z,15.70
2022-09-04T06:03:16.310Z,15.70
2022-09-04T06:05:52.329Z,15.70
2022-09-04T06:08:36.953Z,14.40
2022-09-04T06:11:40.215Z,13.60
2022-09-04T06:14:22.969Z,14.40
2022-09-04T06:17:07.106Z,15.90
2022-09-04T06:19:51.763Z,16.00
2022-09-04T06:22:56.542Z,14.90
2022-09-04T06:26:01.518Z,16.10
2022-09-04T06:28:46.202Z,16.20
2022-09-04T06:31:49.346Z,15.30
2022-09-04T06:34:25.619Z,19.70
2022-09-04T06:37:08.169Z,21.00
2022-09-04T06:39:55.787Z,15.60
2022-09-04T06:42:46.637Z,16.30
2022-09-04T06:45:22.266Z,16.40
2022-09-04T06:48:04.356Z,16.40
2022-09-04T06:50:43.601Z,16.50
2022-09-04T06:53:32.945Z,15.90
2022-09-04T06:56:15.165Z,16.60
2022-09-04T06:59:07.069Z,16.50
2022-09-04T07:01:43.991Z,16.70
2022-09-04T07:04:21.521Z,16.70
2022-09-04T07:07:00.091Z,16.80
2022-09-04T07:09:33.694Z,16.80
2022-09-04T07:12:29.965Z,21.50
2022-09-04T07:15:34.334Z,14.60
2022-09-04T07:18:13.861Z,21.60
2022-09-04T07:20:50.275Z,16.70
2022-09-04T07:23:32.254Z,17.10
2022-09-04T07:26:12.237Z,17.10
2022-09-04T07:29:00.991Z,17.20
2022-09-04T07:31:37.703Z,16.20
2022-09-04T07:34:13.037Z,17.30
2022-09-04T07:36:46.205Z,17.40
2022-09-04T07:39:24.536Z,17.40
2022-09-04T07:41:59.842Z,22.30
2022-09-04T07:44:34.979Z,17.50
2022-09-04T07:47:12.612Z,17.50
2022-09-04T07:49:50.915Z,17.70
2022-09-04T07:52:30.998Z,17.60
2022-09-04T07:55:18.129Z,16.00
2022-09-04T07:58:21.911Z,17.80
2022-09-04T08:01:13.171Z,16.90
2022-09-04T08:04:15.062Z,17.90
2022-09-04T08:06:54.914Z,16.80
2022-09-04T08:09:43.393Z,18.00
2022-09-04T08:12:48.247Z,15.80
2022-09-04T08:15:22.009Z,18.10
2022-09-04T08:18:07.419Z,16.80
2022-09-04T08:20:44.755Z,17.00
2022-09-04T08:23:31.613Z,17.20
2022-09-04T08:26:14.352Z,16.10
2022-09-04T08:29:12.246Z,16.30
2022-09-04T08:31:44.074Z,18.40
2022-09-04T08:34:40.478Z,18.50
2022-09-04T08:37:22.068Z,18.50
2022-09-04T08:40:05.866Z,18.70
2022-09-04T08:43:06.357Z,18.80
2022-09-04T08:46:23.167Z,17.90
2022-09-04T08:49:34.434Z,16.70
2022-09-04T08:52:38.745Z,17.60
2022-09-04T08:55:47.785Z,19.50
2022-09-04T08:59:18.732Z,19.70
2022-09-04T09:02:24.357Z,18.60
2022-09-04T09:05:46.311Z,20.10
2022-09-04T09:08:39.774Z,18.80
2022-09-04T09:11:28.522Z,25.10
2022-09-04T09:14:34.591Z,19.40
2022-09-04T09:17:13.336Z,25.20
2022-09-04T09:19:47.138Z,25.50
2022-09-04T09:22:48.615Z,21.40
2022-09-04T09:25:20.532Z,19.50
2022-09-04T09:28:45.991Z,20.90
2022-09-04T09:31:52.241Z,19.50
2022-09-04T09:35:14.171Z,26.10
2022-09-04T09:38:12.372Z,20.60
2022-09-04T09:41:11.035Z,20.10
2022-09-04T09:43:59.669Z,21.10
2022-09-04T09:46:59.402Z,20.10
2022-09-04T09:50:01.784Z,22.80
2022-09-04T09:53:12.146Z,23.30
2022-09-04T09:56:24.853Z,23.30
2022-09-04T09:59:26.582Z,20.70
2022-09-04T10:02:32.632Z,22.80
2022-09-04T10:05:39.686Z,21.80
2022-09-04T10:08:38.814Z,28.50
2022-09-04T10:11:23.767Z,23.10
2022-09-04T10:14:33.401Z,23.40
2022-09-04T10:17:37.853Z,22.80
2022-09-04T10:20:30.923Z,24.50
2022-09-04T10:23:35.276Z,23.90
2022-09-04T10:26:31.785Z,22.90
2022-09-04T10:29:26.666Z,23.70
2022-09-04T10:32:06.808Z,23.60
2022-09-04T10:38:24.275Z,24.70
2022-09-04T10:41:30.877Z,23.30
2022-09-04T10:44:18.594Z,22.80
2022-09-04T10:47:01.187Z,23.20
2022-09-04T10:49:49.788Z,23.90
2022-09-04T10:52:51.444Z,23.90
2022-09-04T10:55:44.023Z,24.40
2022-09-04T10:58:30.395Z,23.60
2022-09-04T11:01:18.731Z,23.60
2022-09-04T11:04:19.172Z,24.00
2022-09-04T11:07:10.184Z,25.10
2022-09-04T11:09:58.956Z,25.20
2022-09-04T11:12:56.154Z,24.90
2022-09-04T11:15:58.599Z,24.60
2022-09-04T11:18:53.526Z,25.40
2022-09-04T11:22:01.862Z,23.80
2022-09-04T11:25:19.077Z,25.60
2022-09-04T11:28:05.408Z,23.70
2022-09-04T11:30:48.612Z,24.60
2022-09-04T11:34:08.375Z,29.60
2022-09-04T11:37:07.458Z,25.80
2022-09-04T11:39:57.985Z,24.20
2022-09-04T11:42:33.013Z,25.80
2022-09-04T11:45:33.335Z,25.90
2022-09-04T11:48:37.905Z,25.70
2022-09-04T11:51:40.639Z,25.50
2022-09-04T11:54:38.318Z,25.60
2022-09-04T11:57:14.739Z,25.60
2022-09-04T12:00:10.092Z,26.20
2022-09-04T12:03:16.973Z,28.20
2022-09-04T12:05:59.159Z,27.70
2022-09-04T12:08:51.876Z,24.60
2022-09-04T12:11:42.092Z,26.00
2022-09-04T12:14:36.110Z,24.90
2022-09-04T12:17:24.027Z,25.80
2022-09-04T12:20:16.938Z,26.20
2022-09-04T12:23:11.238Z,24.60
2022-09-04T12:26:09.234Z,25.00
2022-09-04T12:29:05.802Z,24.50
2022-09-04T12:32:12.099Z,25.20
2022-09-04T12:35:06.691Z,25.30
2022-09-04T12:37:54.057Z,25.00
2022-09-04T12:40:35.254Z,25.10
2022-09-04T12:43:21.076Z,26.70
2022-09-04T12:46:01.781Z,26.90
2022-09-04T12:48:38.947Z,26.70
2022-09-04T12:51:13.830Z,26.80
2022-09-04T12:54:14.153Z,25.60
2022-09-04T12:56:49.295Z,27.20
2022-09-04T12:59:40.452Z,26.20
2022-09-04T13:02:18.498Z,26.30
2022-09-04T13:04:58.407Z,26.70
2022-09-04T13:07:40.982Z,25.10
2022-09-04T13:10:23.288Z,26.20
2022-09-04T13:13:01.173Z,25.70
2022-09-04T13:15:35.679Z,27.10
2022-09-04T13:18:17.155Z,25.50
2022-09-04T13:20:53.212Z,24.90
2022-09-04T13:23:37.117Z,26.40
2022-09-04T13:26:24.323Z,25.40
2022-09-04T13:29:04.207Z,25.50
2022-09-04T13:31:53.173Z,26.80
2022-09-04T13:34:34.210Z,25.20
2022-09-04T13:37:11.697Z,26.20
2022-09-04T13:40:01.149Z,27.80
2022-09-04T13:42:57.352Z,25.30
2022-09-04T13:45:27.786Z,26.00
2022-09-04T13:48:01.533Z,24.50
2022-09-04T13:50:35.842Z,27.00
2022-09-04T13:53:14.210Z,25.00
2022-09-04T13:55:49.826Z,24.90
2022-09-04T13:58:20.876Z,24.80
2022-09-04T14:00:52.944Z,25.00
2022-09-04T14:03:34.006Z,25.80
2022-09-04T14:06:16.751Z,26.20
2022-09-04T14:09:05.054Z,24.90
2022-09-04T14:12:10.915Z,24.50
2022-09-04T14:15:10.683Z,26.20
2022-09-04T14:17:49.625Z,24.80
2022-09-04T14:20:23.710Z,26.50
2022-09-04T14:23:06.466Z,24.80
2022-09-04T14:25:41.138Z,26.10
2022-09-04T14:28:18.206Z,26.10
2022-09-04T14:30:58.607Z,25.90
2022-09-04T14:33:37.048Z,25.90
2022-09-04T14:36:18.625Z,26.00
2022-09-04T14:39:16.684Z,29.60
2022-09-04T14:41:59.333Z,25.40
2022-09-04T14:44:42.581Z,25.90
2022-09-04T14:47:25.368Z,24.20
2022-09-04T14:49:56.922Z,24.40
2022-09-04T14:52:35.487Z,25.10
2022-09-04T14:55:20.918Z,25.80
2022-09-04T14:57:55.309Z,23.40
2022-09-04T15:03:06.735Z,24.50
2022-09-04T15:05:39.921Z,25.80
2022-09-04T15:08:10.416Z,26.10
2022-09-04T15:10:50.388Z,24.10
2022-09-04T15:13:48.768Z,24.90
2022-09-04T15:16:44.246Z,24.90
2022-09-04T15:19:28.359Z,24.30
2022-09-04T15:22:01.113Z,24.50
2022-09-04T15:24:34.831Z,24.50
2022-09-04T15:27:13.862Z,25.20
2022-09-04T15:29:57.851Z,24.50
2022-09-04T15:32:28.538Z,25.40
2022-09-04T15:35:15.651Z,25.70
2022-09-04T15:37:48.583Z,25.70
2022-09-04T15:40:29.070Z,24.40
2022-09-04T15:43:07.669Z,23.90
2022-09-04T15:45:43.848Z,25.70
2022-09-04T15:48:34.157Z,25.60
2022-09-04T15:51:19.975Z,24.40
2022-09-04T15:54:07.529Z,25.60
2022-09-04T15:56:40.951Z,24.70
2022-09-04T15:59:18.146Z,25.60
2022-09-04T16:01:51.614Z,25.40
2022-09-04T16:04:30.284Z,24.60
2022-09-04T16:07:42.021Z,25.40
2022-09-04T16:10:15.352Z,25.10
2022-09-04T16:12:51.886Z,24.50
2022-09-04T16:15:30.651Z,23.80
2022-09-04T16:18:03.354Z,25.40
2022-09-04T16:20:37.353Z,23.50
2022-09-04T16:23:19.965Z,24.30
2022-09-04T16:25:50.882Z,23.80
2022-09-04T16:28:31.476Z,25.30
2022-09-04T16:31:04.060Z,25.30
2022-09-04T16:33:35.322Z,25.30
2022-09-04T16:36:11.492Z,25.30
2022-09-04T16:38:48.719Z,25.30
2022-09-04T16:41:26.367Z,23.90
2022-09-04T16:44:13.893Z,24.10
2022-09-04T16:46:50.656Z,23.30
2022-09-04T16:49:26.387Z,25.70
2022-09-04T16:52:01.634Z,25.20
2022-09-04T16:54:36.157Z,24.00
2022-09-04T16:57:15.065Z,25.20
2022-09-04T16:59:46.176Z,25.20
2022-09-04T17:02:35.591Z,25.10
2022-09-04T17:05:17.833Z,25.10
2022-09-04T17:07:52.479Z,23.50
2022-09-04T17:10:41.648Z,24.90
2022-09-04T17:13:16.551Z,25.00
2022-09-04T17:15:54.171Z,25.00
2022-09-04T17:18:28.213Z,24.90
2022-09-04T17:22:15.619Z,24.50
2022-09-04T17:29:00.396Z,24.90
2022-09-04T17:29:18.365Z,24.80
2022-09-04T17:29:47.956Z,24.70
2022-09-04T17:33:58.495Z,23.50
2022-09-04T17:40:43.661Z,23.30
2022-09-04T17:40:49.728Z,24.60
2022-09-04T17:41:40.013Z,24.60
2022-09-04T17:44:27.113Z,24.50
2022-09-04T17:47:07.848Z,24.50
2022-09-04T17:52:11.606Z,24.30
2022-09-04T17:54:48.958Z,24.30
2022-09-04T17:57:26.072Z,24.30
2022-09-04T18:00:00.894Z,23.80
2022-09-04T18:02:36.990Z,24.20
2022-09-04T18:05:20.564Z,24.00
2022-09-04T18:08:09.139Z,24.00
2022-09-04T18:10:53.622Z,22.50
2022-09-04T18:13:37.678Z,23.90
2022-09-04T18:16:21.065Z,23.60
2022-09-04T18:18:53.330Z,27.90
2022-09-04T18:21:26.797Z,23.70
2022-09-04T18:24:05.339Z,23.60
2022-09-04T18:26:41.524Z,23.60
2022-09-04T18:33:14.112Z,23.50
2022-09-04T18:37:07.358Z,23.40
2022-09-04T18:37:17.417Z,23.30
2022-09-04T18:38:46.268Z,22.10
2022-09-04T18:44:56.662Z,22.70
2022-09-04T18:50:25.101Z,21.50
2022-09-04T18:50:35.456Z,21.10
2022-09-04T18:50:39.986Z,23.10
2022-09-04T18:53:09.830Z,23.10
2022-09-04T18:55:46.684Z,23.00
2022-09-04T18:58:42.169Z,23.00
2022-09-04T19:01:27.253Z,22.90
2022-09-04T19:03:58.148Z,22.80
2022-09-04T19:06:34.987Z,22.80
2022-09-04T19:09:12.398Z,22.70
2022-09-04T19:11:47.441Z,22.70
2022-09-04T19:14:21.801Z,22.60
2022-09-04T19:16:54.894Z,22.60
2022-09-04T19:19:33.961Z,22.60
2022-09-04T19:22:12.018Z,22.60
2022-09-04T19:24:43.620Z,23.60
2022-09-04T19:27:32.033Z,22.40
2022-09-04T19:30:19.816Z,22.10
2022-09-04T19:33:07.019Z,21.30
2022-09-04T19:36:04.171Z,22.50
2022-09-04T19:45:58.993Z,22.40
2022-09-04T19:46:26.545Z,21.00
2022-09-04T19:48:13.148Z,22.30
2022-09-04T19:53:24.013Z,22.30
2022-09-04T19:53:49.899Z,22.20
2022-09-04T19:56:28.302Z,22.10
2022-09-04T19:59:07.302Z,20.60
2022-09-04T20:01:48.760Z,22.00
2022-09-04T20:04:46.779Z,21.40
2022-09-04T20:07:25.994Z,21.90
2022-09-04T20:10:01.394Z,21.90
2022-09-04T20:12:36.253Z,21.90
2022-09-04T20:15:14.759Z,20.30
2022-09-04T20:18:04.129Z,21.90
2022-09-04T20:20:38.785Z,21.80
2022-09-04T20:23:33.992Z,21.80
2022-09-04T20:26:07.928Z,21.70
2022-09-04T20:28:48.564Z,21.70
2022-09-04T20:31:41.967Z,19.70
2022-09-04T20:34:25.355Z,20.10
2022-09-04T20:37:02.196Z,20.40
2022-09-04T20:39:43.716Z,21.60
2022-09-04T20:42:21.077Z,21.60
2022-09-04T20:45:42.343Z,21.60
2022-09-04T20:52:45.541Z,21.50
2022-09-04T20:52:59.685Z,21.50
2022-09-04T20:53:58.833Z,19.70
2022-09-04T20:58:11.307Z,20.10
2022-09-04T21:03:09.429Z,21.40
2022-09-04T21:03:14.862Z,21.30
2022-09-04T21:05:59.994Z,21.30
2022-09-04T21:08:49.289Z,21.30
2022-09-04T21:11:39.632Z,21.20
2022-09-04T21:14:15.335Z,20.70
2022-09-04T21:17:34.117Z,21.20
2022-09-04T21:20:18.732Z,19.60
2022-09-04T21:23:07.689Z,21.20
2022-09-04T21:25:52.944Z,21.20
2022-09-04T21:29:11.317Z,21.10
2022-09-04T21:32:08.323Z,21.10
2022-09-04T21:35:02.986Z,21.10
2022-09-04T21:37:42.614Z,21.00
2022-09-04T21:40:51.345Z,19.40
2022-09-04T21:43:53.843Z,21.00
2022-09-04T21:46:47.101Z,20.20
2022-09-04T21:49:40.413Z,19.50
2022-09-04T21:52:37.767Z,20.10
2022-09-04T21:57:00.000Z,20.70
2022-09-04T22:02:35.549Z,18.80
2022-09-04T22:02:40.458Z,20.80
2022-09-04T22:04:49.583Z,20.80
2022-09-04T22:10:50.822Z,20.70
2022-09-04T22:13:42.852Z,20.70
2022-09-04T22:13:47.983Z,20.60
2022-09-04T22:16:39.215Z,19.20
2022-09-04T22:20:03.159Z,19.70
2022-09-04T22:22:56.570Z,20.50
2022-09-04T22:25:48.368Z,20.60
2022-09-04T22:28:46.515Z,18.70
2022-09-04T22:31:49.431Z,20.50
2022-09-04T22:34:51.264Z,19.40
2022-09-04T22:37:51.316Z,20.30
2022-09-04T22:40:33.464Z,20.30
2022-09-04T22:43:17.668Z,20.20
2022-09-04T22:46:18.796Z,20.20
2022-09-04T22:49:29.824Z,20.20
2022-09-04T22:52:42.181Z,20.00
2022-09-04T22:55:40.045Z,20.20
2022-09-04T22:58:24.525Z,18.80
2022-09-04T23:01:10.702Z,20.20
2022-09-04T23:03:52.155Z,20.10
2022-09-04T23:08:21.614Z,18.30
2022-09-04T23:13:52.839Z,18.50
2022-09-04T23:13:58.766Z,18.50
2022-09-04T23:16:38.041Z,18.10
2022-09-04T23:26:02.991Z,19.80
2022-09-04T23:26:36.294Z,19.30
2022-09-04T23:26:48.451Z,17.50
2022-09-04T23:28:51.909Z,19.70
2022-09-04T23:31:41.196Z,19.70
2022-09-04T23:34:40.027Z,19.70
2022-09-04T23:37:27.777Z,19.70
2022-09-04T23:40:35.396Z,19.70
2022-09-04T23:43:37.390Z,17.80
2022-09-04T23:46:19.665Z,19.20
2022-09-04T23:49:22.318Z,19.60
2022-09-04T23:51:58.510Z,19.50
2022-09-04T23:54:50.378Z,19.50
2022-09-04T23:57:27.906Z,19.40
